»·PEaware :: N612C KSBA-KBUR

N612C :: KSBA-KBUR

FLIGHT INFORMATION

Flight Status: Arrived
Operator: Privately registered:
United States
More flights under this callsign
Pilot: Don H. (15606)
Aircraft: SOCATA TBM-850
(TBM8)
More flights by this aircraft type
Origin: KSBA Santa Barbara Mun
United States
Destination: KBUR Bob Hope-Burbank
United States
More flights between these airports :: More routes between these airports
Route: +
File this flight plan on PilotEdge
Remarks:
Altitude:
(Current/Filed)
0ft
Speed:
(Current/Filed)
0kts
Departed: 11-Oct-18 09:17 AM
Arrived: 11-Oct-18 09:49 AM
Distance/Time
Traveled:
75nm/0:32
Distance/Time
To Go:
Arrived

Flight Plot

Page will automatically refresh every two minutes.


Map Options




Map Legend


Flown Route
Filed Route
Departure Airport
Arrival Airport
Navaid (VOR, NDB)
Fix

Horizontal Profiles

Position Reports

Time Latitude Longitude Heading Altitude Ground
Speed
11-Oct-18 09:12 34.422654 -119.835589 340 16ft 0kts
11-Oct-18 09:13 34.422654 -119.835589 340 16ft 0kts
11-Oct-18 09:14 34.422654 -119.835589 340 16ft 0kts
11-Oct-18 09:15 34.422795 -119.836218 277 16ft 19kts
11-Oct-18 09:16 34.426730 -119.836333 88 16ft 34kts
11-Oct-18 09:17 34.427064 -119.835226 5 16ft 0kts
11-Oct-18 09:18 34.427064 -119.835226 5 16ft 0kts
11-Oct-18 09:19 34.427750 -119.845736 268 188ft 100kts
11-Oct-18 09:20 34.425565 -119.880690 265 1538ft 132kts
11-Oct-18 09:21 34.422274 -119.927513 265 1516ft 142kts
11-Oct-18 09:22 34.418978 -119.974870 265 1516ft 142kts
11-Oct-18 09:23 34.441306 -119.989201 61 2204ft 159kts
11-Oct-18 09:24 34.436265 -119.932654 100 3543ft 183kts
11-Oct-18 09:25 34.427544 -119.871703 100 4822ft 189kts
11-Oct-18 09:26 34.418730 -119.810507 100 6085ft 188kts
11-Oct-18 09:27 34.410370 -119.752789 100 7282ft 186kts
11-Oct-18 09:28 34.400915 -119.686035 100 7521ft 222kts
11-Oct-18 09:29 34.390356 -119.611504 100 7516ft 232kts
11-Oct-18 09:30 34.379778 -119.538378 100 7515ft 234kts
11-Oct-18 09:31 34.368715 -119.462644 100 7515ft 234kts
11-Oct-18 09:32 34.357594 -119.386978 100 7515ft 234kts
11-Oct-18 09:33 34.347781 -119.320507 100 7515ft 234kts
11-Oct-18 09:34 34.336695 -119.245726 100 7515ft 234kts
11-Oct-18 09:35 34.326421 -119.170234 92 7501ft 234kts
11-Oct-18 09:36 34.314825 -119.095278 101 7515ft 233kts
11-Oct-18 09:37 34.303001 -119.019888 101 7515ft 233kts
11-Oct-18 09:38 34.291772 -118.945889 100 7515ft 233kts
11-Oct-18 09:39 34.280946 -118.875163 101 7446ft 205kts
11-Oct-18 09:40 34.271233 -118.812542 100 6518ft 196kts
11-Oct-18 09:41 34.256348 -118.753127 118 5559ft 193kts
11-Oct-18 09:42 34.228504 -118.703616 124 4577ft 178kts
11-Oct-18 09:43 34.213447 -118.652333 99 3487ft 176kts
11-Oct-18 09:44 34.202842 -118.606232 93 2992ft 133kts
11-Oct-18 09:45 34.201874 -118.572326 91 3005ft 97kts
11-Oct-18 09:46 34.201098 -118.543072 91 3057ft 142kts
11-Oct-18 09:47 34.199910 -118.495950 91 3022ft 179kts
11-Oct-18 09:48 34.199626 -118.445314 82 2850ft 173kts
11-Oct-18 09:49 34.198492 -118.397793 93 1499ft 118kts
11-Oct-18 09:50 34.197855 -118.364253 90 779ft 91kts
11-Oct-18 09:51 34.198354 -118.360221 2 779ft 0kts
11-Oct-18 09:52 34.198878 -118.359332 92 779ft 12kts
11-Oct-18 09:53 34.200003 -118.358868 322 779ft 8kts
11-Oct-18 09:54 34.200024 -118.359026 255 779ft 0kts
11-Oct-18 09:55 34.200024 -118.359026 255 779ft 0kts
11-Oct-18 09:56 34.200024 -118.359026 255 779ft 0kts
11-Oct-18 09:57 34.200024 -118.359026 255 779ft 0kts
11-Oct-18 09:58 34.200024 -118.359026 255 779ft 0kts
11-Oct-18 09:59 34.200024 -118.359026 255 779ft 0kts
11-Oct-18 10:00 34.200024 -118.359026 255 779ft 0kts
11-Oct-18 10:01 34.200024 -118.359026 255 779ft 0kts
11-Oct-18 10:02 34.200024 -118.359026 255 779ft 0kts
11-Oct-18 10:03 34.200024 -118.359026 255 779ft 0kts
11-Oct-18 10:04 34.200024 -118.359026 255 779ft 0kts
11-Oct-18 10:05 34.200024 -118.359026 255 779ft 0kts

Navigation Log

Ident Type
Flight plan parsing failed, navigation log unavailable